Time;durP1;ratioP1;P1;durP2;ratioP2;P2;SDS_P1;SDS_P2;PMS_P1;PMS_P2;Temp;Humidity;BMP_temperature;BMP_pressure;BME280_temperature;BME280_humidity;BME280_pressure;Samples;Min_cycle;Max_cycle;Signal;HPM_P1;HPM_P2
2023/06/10 00:02:00;;;;;;;10.03;7.40;;;19.80;99.90;;;;;;5008792;28;20420;-74
2023/06/10 00:04:27;;;;;;;9.27;7.47;;;19.70;99.90;;;;;;5012626;28;20999;-74
2023/06/10 00:06:53;;;;;;;8.93;7.20;;;19.70;99.90;;;;;;5007201;28;20420;-74
2023/06/10 00:09:21;;;;;;;10.10;7.43;;;19.70;99.90;;;;;;5007777;28;20486;-74
2023/06/10 00:11:47;;;;;;;11.35;7.57;;;19.70;99.90;;;;;;5008283;28;20419;-74
2023/06/10 00:14:14;;;;;;;10.23;7.18;;;19.80;99.90;;;;;;5012085;28;20498;-74
2023/06/10 00:16:40;;;;;;;8.48;6.43;;;19.80;99.90;;;;;;5005313;28;20409;-74
2023/06/10 00:19:08;;;;;;;8.60;6.30;;;19.80;99.90;;;;;;5013824;28;21203;-74
2023/06/10 00:21:40;;;;;;;7.63;6.25;;;19.80;99.90;;;;;;5008910;28;22276;-74
2023/06/10 00:24:11;;;;;;;10.10;6.07;;;19.80;99.90;;;;;;5041800;28;20423;-74
2023/06/10 00:26:39;;;;;;;8.35;6.38;;;19.80;99.90;;;;;;5007810;28;20506;-74
2023/06/10 00:29:06;;;;;;;8.50;6.03;;;19.90;99.90;;;;;;5011424;28;20424;-74
2023/06/10 00:31:37;;;;;;;8.30;6.10;;;19.90;99.90;;;;;;5057992;28;20459;-74
2023/06/10 00:34:04;;;;;;;8.23;6.30;;;19.90;99.90;;;;;;5009937;28;20430;-74
2023/06/10 00:36:30;;;;;;;8.57;6.30;;;19.90;99.90;;;;;;5005846;28;20463;-74
2023/06/10 00:38:57;;;;;;;7.47;5.55;;;19.90;99.90;;;;;;5007464;28;20750;-74
2023/06/10 00:41:24;;;;;;;7.40;6.03;;;19.80;99.90;;;;;;5007308;28;20510;-74
2023/06/10 00:43:50;;;;;;;7.35;5.63;;;19.80;99.90;;;;;;5012281;28;20458;-74
2023/06/10 00:46:18;;;;;;;8.00;5.80;;;19.80;99.90;;;;;;5040382;28;20414;-74
2023/06/10 00:48:46;;;;;;;7.95;5.63;;;19.80;99.90;;;;;;5010477;28;20425;-74
2023/06/10 00:51:12;;;;;;;9.07;5.63;;;19.80;99.90;;;;;;5010273;28;20424;-74
2023/06/10 00:53:41;;;;;;;6.73;5.50;;;19.80;99.90;;;;;;5041786;28;20427;-74
2023/06/10 00:56:09;;;;;;;8.35;5.63;;;19.80;99.90;;;;;;5005636;28;20469;-74
2023/06/10 00:58:35;;;;;;;7.32;5.57;;;19.70;99.90;;;;;;5019430;28;20518;-74
2023/06/10 01:01:03;;;;;;;8.50;5.43;;;19.70;99.90;;;;;;5011783;28;20431;-74
2023/06/10 01:03:32;;;;;;;6.95;5.35;;;19.70;99.90;;;;;;5007492;28;20517;-74
2023/06/10 01:06:17;;;;;;;9.57;5.53;;;19.70;99.90;;;;;;5004515;28;20426;-74
2023/06/10 01:09:06;;;;;;;7.73;5.70;;;19.80;99.90;;;;;;5025866;28;20802;-74
2023/06/10 01:11:49;;;;;;;7.00;5.40;;;19.70;99.90;;;;;;5005845;28;20457;-74
2023/06/10 01:14:17;;;;;;;7.78;5.20;;;19.70;99.90;;;;;;5009028;28;20506;-74
2023/06/10 01:16:45;;;;;;;7.53;5.13;;;19.80;99.90;;;;;;5004024;28;20425;-72
2023/06/10 01:19:17;;;;;;;8.63;5.47;;;19.90;99.90;;;;;;5007340;28;20417;-72
2023/06/10 01:21:48;;;;;;;8.43;5.15;;;19.80;99.90;;;;;;5009101;28;20481;-72
2023/06/10 01:24:18;;;;;;;7.20;5.05;;;19.80;99.90;;;;;;5006622;28;21463;-72
2023/06/10 01:26:50;;;;;;;6.50;4.90;;;19.80;99.90;;;;;;5040679;28;20422;-72
2023/06/10 01:29:33;;;;;;;6.80;5.05;;;19.80;99.90;;;;;;5006838;28;20427;-72
2023/06/10 01:32:17;;;;;;;7.07;5.20;;;19.90;99.90;;;;;;5011375;28;20458;-72
2023/06/10 01:34:45;;;;;;;6.28;5.13;;;19.80;99.90;;;;;;5038751;28;20916;-72
2023/06/10 01:37:19;;;;;;;7.70;4.88;;;19.70;99.90;;;;;;5009380;28;20411;-72
2023/06/10 01:39:48;;;;;;;6.50;4.83;;;19.60;99.90;;;;;;5006197;28;20412;-73
2023/06/10 01:42:15;;;;;;;8.13;5.32;;;19.60;99.90;;;;;;5006994;28;20422;-74
2023/06/10 01:44:42;;;;;;;7.45;4.88;;;19.60;99.90;;;;;;5008365;28;20451;-74
2023/06/10 01:47:09;;;;;;;7.43;5.18;;;19.60;99.90;;;;;;5041579;28;20495;-73
2023/06/10 01:49:35;;;;;;;7.10;4.90;;;19.60;99.90;;;;;;5005286;28;20427;-73
2023/06/10 01:52:04;;;;;;;6.88;4.95;;;19.50;99.90;;;;;;5007511;28;20501;-73
2023/06/10 01:54:30;;;;;;;7.30;4.93;;;19.60;99.90;;;;;;5013939;28;20426;-73
2023/06/10 01:56:56;;;;;;;7.30;5.00;;;19.60;99.90;;;;;;5032115;28;21135;-73
2023/06/10 01:59:22;;;;;;;9.45;5.40;;;19.60;99.90;;;;;;5025991;28;20419;-73
2023/06/10 02:01:48;;;;;;;7.03;5.35;;;19.70;99.90;;;;;;5012463;28;20415;-73
2023/06/10 02:04:16;;;;;;;6.70;5.03;;;19.70;99.90;;;;;;5028451;28;20461;-73
2023/06/10 02:06:42;;;;;;;7.88;5.20;;;19.70;99.90;;;;;;5008316;28;20531;-73
2023/06/10 02:09:11;;;;;;;6.70;4.97;;;19.70;99.90;;;;;;5010560;28;20728;-73
2023/06/10 02:11:38;;;;;;;7.65;5.25;;;19.70;99.90;;;;;;5011512;28;20903;-73
2023/06/10 02:14:04;;;;;;;10.02;5.28;;;19.70;99.90;;;;;;5014818;28;20406;-74
2023/06/10 02:16:31;;;;;;;6.22;5.25;;;19.80;99.90;;;;;;5009887;28;20415;-74
2023/06/10 02:18:57;;;;;;;7.95;5.30;;;19.80;99.90;;;;;;5005830;28;20408;-74
2023/06/10 02:21:23;;;;;;;8.43;5.28;;;19.80;99.90;;;;;;5036957;28;20414;-74
2023/06/10 02:23:50;;;;;;;6.07;4.70;;;19.70;99.90;;;;;;5010643;28;20409;-74
2023/06/10 02:26:16;;;;;;;7.43;5.00;;;19.70;99.90;;;;;;5010959;28;20448;-74
2023/06/10 02:28:45;;;;;;;7.97;5.30;;;19.70;99.90;;;;;;5037716;28;20414;-74
2023/06/10 02:31:11;;;;;;;10.02;5.45;;;19.80;99.90;;;;;;5010306;28;20844;-74
2023/06/10 02:33:40;;;;;;;7.10;5.30;;;19.80;99.90;;;;;;5039815;28;20422;-74
2023/06/10 02:36:06;;;;;;;6.97;5.57;;;19.80;99.90;;;;;;5009915;28;20528;-74
2023/06/10 02:38:33;;;;;;;11.50;5.60;;;19.60;99.90;;;;;;5005877;28;20906;-74
2023/06/10 02:40:59;;;;;;;6.70;5.40;;;19.50;99.90;;;;;;5038952;28;20429;-75
2023/06/10 02:43:25;;;;;;;7.75;5.40;;;19.50;99.90;;;;;;5011101;28;20430;-74
2023/06/10 02:45:51;;;;;;;9.43;5.30;;;19.40;99.90;;;;;;5007970;28;20414;-74
2023/06/10 02:48:18;;;;;;;7.72;5.82;;;19.30;99.90;;;;;;5036136;28;20418;-73
2023/06/10 02:50:45;;;;;;;8.02;5.55;;;19.30;99.90;;;;;;5039457;28;22406;-76
2023/06/10 02:53:11;;;;;;;8.63;5.40;;;19.30;99.90;;;;;;5037991;28;20469;-76
2023/06/10 02:55:37;;;;;;;7.75;5.55;;;19.40;99.90;;;;;;5011046;28;20426;-73
2023/06/10 02:58:04;;;;;;;8.48;5.55;;;19.30;99.90;;;;;;5007661;28;20428;-73
2023/06/10 03:00:30;;;;;;;8.90;5.70;;;19.30;99.90;;;;;;5021110;28;20427;-75
2023/06/10 03:02:57;;;;;;;7.57;5.80;;;19.30;99.90;;;;;;5007973;28;20419;-73
2023/06/10 03:05:23;;;;;;;7.88;5.50;;;19.30;99.90;;;;;;5036359;28;20417;-75
2023/06/10 03:07:49;;;;;;;8.48;5.60;;;19.30;99.90;;;;;;5007520;28;20496;-73
2023/06/10 03:10:15;;;;;;;7.60;6.13;;;19.30;99.90;;;;;;5006729;28;20421;-74
2023/06/10 03:12:42;;;;;;;7.47;5.43;;;19.40;99.90;;;;;;5006691;28;20421;-74
2023/06/10 03:15:09;;;;;;;6.73;5.40;;;19.40;99.90;;;;;;5010819;28;20517;-76
2023/06/10 03:17:35;;;;;;;7.43;5.70;;;19.50;99.90;;;;;;5009146;28;20411;-76
2023/06/10 03:20:01;;;;;;;7.30;5.78;;;19.50;99.90;;;;;;5010477;28;20460;-74
2023/06/10 03:22:28;;;;;;;8.85;5.32;;;19.50;99.90;;;;;;5005760;28;20424;-76
2023/06/10 03:24:54;;;;;;;7.60;5.43;;;19.60;99.90;;;;;;5027845;28;20510;-76
2023/06/10 03:27:21;;;;;;;10.32;5.68;;;19.60;99.90;;;;;;5009268;28;20469;-76
2023/06/10 03:29:47;;;;;;;7.72;5.63;;;19.60;99.90;;;;;;5012572;28;21050;-76
2023/06/10 03:32:13;;;;;;;7.13;5.63;;;19.70;99.90;;;;;;5011047;28;20928;-76
2023/06/10 03:34:41;;;;;;;7.45;5.10;;;19.60;99.90;;;;;;5006891;28;20417;-76
2023/06/10 03:37:07;;;;;;;8.68;5.70;;;19.70;99.90;;;;;;5005215;28;20481;-76
2023/06/10 03:39:33;;;;;;;7.75;5.20;;;19.70;99.90;;;;;;5037608;28;20780;-76
2023/06/10 03:42:00;;;;;;;6.70;5.10;;;19.80;99.90;;;;;;5009154;28;20413;-75
2023/06/10 03:44:26;;;;;;;8.57;5.57;;;19.80;99.90;;;;;;5008921;28;20430;-75
2023/06/10 03:46:53;;;;;;;6.78;5.43;;;19.90;99.90;;;;;;5010116;28;20514;-75
2023/06/10 03:49:19;;;;;;;9.02;5.88;;;19.90;99.90;;;;;;5007216;28;20520;-75
2023/06/10 03:51:45;;;;;;;7.33;5.50;;;19.90;99.90;;;;;;5023841;28;20451;-75
2023/06/10 03:54:11;;;;;;;7.35;5.30;;;20.00;99.90;;;;;;5037519;28;20407;-76
2023/06/10 03:56:38;;;;;;;8.48;5.65;;;20.10;99.90;;;;;;5010701;28;20418;-76
2023/06/10 03:59:05;;;;;;;7.28;5.65;;;20.10;99.90;;;;;;5038162;28;20422;-75
2023/06/10 04:01:31;;;;;;;5.95;4.97;;;20.20;99.90;;;;;;5006066;28;21011;-75
2023/06/10 04:03:58;;;;;;;6.80;5.43;;;20.30;99.90;;;;;;5023092;28;20427;-75
2023/06/10 04:06:25;;;;;;;10.15;5.70;;;20.30;99.90;;;;;;5005640;28;21086;-76
2023/06/10 04:08:51;;;;;;;9.77;5.60;;;20.40;99.90;;;;;;5005938;28;20425;-76
2023/06/10 04:11:18;;;;;;;8.02;5.63;;;20.40;99.90;;;;;;5011677;28;20419;-76
2023/06/10 04:13:44;;;;;;;6.70;5.43;;;20.50;99.90;;;;;;5008684;28;20414;-76
2023/06/10 04:16:10;;;;;;;9.13;5.53;;;20.50;99.90;;;;;;5036094;28;20990;-76
2023/06/10 04:18:37;;;;;;;7.20;5.50;;;20.50;99.90;;;;;;4999964;28;20448;-76
2023/06/10 04:21:05;;;;;;;11.02;5.60;;;20.60;99.90;;;;;;5004300;28;20496;-77
2023/06/10 04:23:31;;;;;;;7.20;5.28;;;20.60;99.90;;;;;;5035314;28;20558;-77
2023/06/10 04:25:59;;;;;;;7.83;5.20;;;20.70;99.90;;;;;;5010680;28;20748;-77
2023/06/10 04:28:25;;;;;;;9.10;5.13;;;20.80;99.90;;;;;;5023155;28;20902;-77
2023/06/10 04:30:52;;;;;;;7.70;5.15;;;20.90;99.90;;;;;;5005848;28;20467;-76
2023/06/10 04:33:18;;;;;;;7.85;5.20;;;21.00;99.90;;;;;;5008234;28;20426;-76
2023/06/10 04:35:47;;;;;;;6.95;4.85;;;21.10;99.90;;;;;;5002866;28;20447;-76
2023/06/10 04:38:14;;;;;;;6.13;4.50;;;21.10;99.90;;;;;;5006099;28;21111;-75
2023/06/10 04:40:41;;;;;;;7.47;5.00;;;21.10;99.90;;;;;;5006876;28;20440;-75
2023/06/10 04:43:07;;;;;;;6.00;4.40;;;21.20;99.90;;;;;;5004805;28;20846;-75
2023/06/10 04:45:34;;;;;;;5.85;4.60;;;21.20;99.90;;;;;;5006356;28;20517;-75
2023/06/10 04:48:00;;;;;;;7.00;4.50;;;21.20;99.90;;;;;;5004560;28;20919;-75
2023/06/10 04:50:27;;;;;;;6.20;4.57;;;21.30;99.90;;;;;;5008754;28;20405;-75
2023/06/10 04:52:56;;;;;;;6.53;4.38;;;21.30;99.90;;;;;;5003660;28;20444;-75
2023/06/10 04:55:23;;;;;;;6.05;4.35;;;21.40;99.90;;;;;;5037622;28;20416;-75
2023/06/10 04:57:50;;;;;;;7.60;4.45;;;21.40;99.90;;;;;;5003463;28;21275;-75
2023/06/10 05:00:17;;;;;;;5.80;4.03;;;21.50;99.90;;;;;;5040728;28;20420;-75
2023/06/10 05:02:44;;;;;;;7.70;4.53;;;21.50;99.90;;;;;;5009640;28;20496;-75
2023/06/10 05:05:11;;;;;;;5.35;4.30;;;21.60;99.90;;;;;;5024589;28;20813;-76
2023/06/10 05:07:37;;;;;;;7.50;4.47;;;21.60;99.90;;;;;;5023087;28;20549;-76
2023/06/10 05:10:05;;;;;;;7.72;4.45;;;21.70;99.90;;;;;;5037434;28;20527;-76
2023/06/10 05:12:31;;;;;;;4.57;4.13;;;21.80;99.90;;;;;;5010294;28;20824;-76
2023/06/10 05:14:58;;;;;;;6.97;4.25;;;21.80;99.90;;;;;;5005403;28;20440;-76
2023/06/10 05:17:25;;;;;;;8.55;4.57;;;21.80;99.90;;;;;;5035172;28;20585;-76
2023/06/10 05:19:52;;;;;;;7.68;4.45;;;21.90;99.90;;;;;;5006553;28;20408;-76
2023/06/10 05:22:19;;;;;;;6.57;4.53;;;21.90;99.90;;;;;;5007674;28;20417;-76
2023/06/10 05:24:45;;;;;;;6.53;4.70;;;21.90;99.90;;;;;;5003679;28;20421;-76
2023/06/10 05:27:11;;;;;;;6.27;4.70;;;22.10;99.90;;;;;;5007650;28;21037;-75
2023/06/10 05:29:38;;;;;;;7.40;4.63;;;22.20;99.90;;;;;;5009107;28;20420;-76
2023/06/10 05:32:05;;;;;;;7.78;4.70;;;22.20;99.90;;;;;;5002964;28;20997;-76
2023/06/10 05:34:31;;;;;;;6.57;4.63;;;22.20;99.90;;;;;;5006792;28;20480;-76
2023/06/10 05:36:58;;;;;;;7.70;5.30;;;22.30;99.90;;;;;;5024807;28;20416;-76
2023/06/10 05:39:25;;;;;;;6.93;4.70;;;22.30;99.90;;;;;;5007885;28;21290;-76
2023/06/10 05:41:51;;;;;;;7.60;4.63;;;22.40;99.90;;;;;;5006226;28;20454;-76
2023/06/10 05:44:17;;;;;;;5.70;4.57;;;22.40;99.90;;;;;;5008157;28;20979;-76
2023/06/10 05:46:43;;;;;;;6.07;4.88;;;22.50;99.90;;;;;;5002006;28;20426;-76
2023/06/10 05:49:10;;;;;;;7.07;5.05;;;22.50;99.90;;;;;;5004751;28;20813;-76
2023/06/10 05:51:37;;;;;;;7.70;4.80;;;22.60;99.90;;;;;;5037390;28;20418;-76
2023/06/10 05:54:03;;;;;;;7.73;4.73;;;22.70;99.90;;;;;;5006050;28;20530;-76
2023/06/10 05:56:29;;;;;;;7.05;4.65;;;22.70;99.90;;;;;;5007161;28;20447;-76
2023/06/10 05:58:56;;;;;;;7.28;5.38;;;22.80;99.90;;;;;;5036243;28;21226;-76
2023/06/10 06:01:23;;;;;;;5.75;4.80;;;22.80;99.90;;;;;;5007256;28;20441;-76
2023/06/10 06:03:49;;;;;;;7.00;4.90;;;22.90;99.90;;;;;;5038561;28;20480;-76
2023/06/10 06:06:15;;;;;;;7.22;5.07;;;22.90;99.90;;;;;;5005165;28;20511;-76
2023/06/10 06:08:42;;;;;;;7.57;4.80;;;23.00;99.90;;;;;;5006788;28;20418;-77
2023/06/10 06:11:09;;;;;;;7.82;5.20;;;23.10;99.90;;;;;;5003602;28;20425;-76
2023/06/10 06:13:35;;;;;;;7.68;5.22;;;23.10;99.90;;;;;;5020219;28;20920;-77
2023/06/10 06:16:01;;;;;;;8.77;5.20;;;23.20;99.90;;;;;;4992747;28;21417;-77
2023/06/10 06:18:27;;;;;;;8.67;5.40;;;23.30;99.90;;;;;;5011603;28;20407;-77
2023/06/10 06:20:54;;;;;;;9.18;5.20;;;23.30;99.90;;;;;;5004997;28;21036;-76
2023/06/10 06:23:20;;;;;;;9.10;5.38;;;23.40;99.90;;;;;;5016466;28;20413;-76
2023/06/10 06:25:46;;;;;;;11.25;5.60;;;23.50;99.90;;;;;;4991929;28;20423;-76
2023/06/10 06:28:13;;;;;;;12.20;5.63;;;23.50;99.90;;;;;;5017368;28;20503;-76
2023/06/10 06:30:39;;;;;;;14.30;5.70;;;23.50;99.90;;;;;;5030944;28;20420;-76
2023/06/10 06:33:06;;;;;;;12.10;6.03;;;23.60;99.90;;;;;;5006292;28;20465;-76
2023/06/10 06:35:34;;;;;;;11.93;5.93;;;23.70;99.90;;;;;;5032022;28;20415;-75
2023/06/10 06:38:00;;;;;;;9.10;5.65;;;23.70;99.90;;;;;;5007672;28;20418;-75
2023/06/10 06:40:26;;;;;;;9.73;5.40;;;23.70;99.90;;;;;;5040631;28;21595;-75
2023/06/10 06:42:53;;;;;;;9.40;5.47;;;23.80;99.90;;;;;;5038246;28;20501;-75
2023/06/10 06:45:19;;;;;;;9.07;5.25;;;23.80;99.90;;;;;;5037395;28;20433;-75
2023/06/10 06:47:45;;;;;;;10.13;5.50;;;23.80;99.90;;;;;;5021333;28;20519;-75
2023/06/10 06:50:12;;;;;;;9.27;5.03;;;23.90;99.90;;;;;;5040213;28;20490;-75
2023/06/10 06:52:38;;;;;;;10.48;5.60;;;23.90;99.90;;;;;;5007869;28;20429;-75
2023/06/10 06:55:05;;;;;;;10.73;5.72;;;24.00;99.90;;;;;;5009549;28;20764;-76
2023/06/10 06:57:32;;;;;;;12.23;5.78;;;24.10;99.90;;;;;;5009636;28;20949;-76
2023/06/10 06:59:58;;;;;;;11.23;5.53;;;24.20;99.90;;;;;;5037963;28;20510;-75
2023/06/10 07:02:24;;;;;;;11.07;5.53;;;24.30;99.90;;;;;;5005062;28;20532;-75
2023/06/10 07:04:50;;;;;;;8.43;5.23;;;24.40;99.90;;;;;;5033290;28;20420;-75
2023/06/10 07:07:17;;;;;;;11.77;5.83;;;24.50;99.90;;;;;;5007741;28;20432;-76
2023/06/10 07:09:43;;;;;;;10.57;5.60;;;24.60;99.90;;;;;;5009834;28;20410;-75
2023/06/10 07:12:10;;;;;;;10.07;5.30;;;24.60;99.90;;;;;;5012543;28;20411;-76
2023/06/10 07:14:36;;;;;;;9.18;5.47;;;24.70;99.90;;;;;;5045313;28;20438;-77
2023/06/10 07:17:03;;;;;;;10.23;5.00;;;24.90;99.90;;;;;;5013557;28;20990;-76
2023/06/10 07:19:29;;;;;;;11.70;5.80;;;24.90;99.90;;;;;;5015120;28;20418;-74
2023/06/10 07:21:55;;;;;;;9.48;4.95;;;25.00;99.90;;;;;;5045816;28;20835;-76
2023/06/10 07:24:21;;;;;;;9.32;5.43;;;25.10;99.90;;;;;;5044443;28;20509;-74
2023/06/10 07:26:48;;;;;;;9.50;5.40;;;25.20;99.90;;;;;;5042217;28;20420;-77
2023/06/10 07:29:14;;;;;;;8.75;5.20;;;25.20;99.90;;;;;;5013585;28;20421;-76
2023/06/10 07:31:42;;;;;;;12.48;5.38;;;25.20;99.90;;;;;;5040762;28;20428;-76
2023/06/10 07:34:08;;;;;;;14.30;5.23;;;25.30;99.90;;;;;;5006504;28;20514;-73
2023/06/10 07:36:34;;;;;;;10.02;4.93;;;25.40;99.90;;;;;;5008725;28;20415;-74
2023/06/10 07:39:00;;;;;;;12.07;5.68;;;25.60;99.90;;;;;;5017143;28;20475;-74
2023/06/10 07:41:27;;;;;;;10.30;5.40;;;25.70;99.90;;;;;;5029881;28;20488;-76
2023/06/10 07:43:56;;;;;;;14.02;5.80;;;25.80;99.90;;;;;;5011452;28;20413;-73
2023/06/10 07:46:23;;;;;;;10.23;5.47;;;25.90;99.90;;;;;;5006437;28;21168;-74
2023/06/10 07:48:51;;;;;;;9.77;5.07;;;26.00;99.90;;;;;;5010010;28;20872;-74
2023/06/10 07:51:18;;;;;;;8.55;4.88;;;26.00;99.90;;;;;;5006057;28;21143;-76
2023/06/10 07:53:44;;;;;;;9.15;4.95;;;26.10;99.90;;;;;;5024582;28;21120;-74
2023/06/10 07:56:11;;;;;;;11.85;5.22;;;26.20;99.90;;;;;;5010143;28;20419;-74
2023/06/10 07:58:37;;;;;;;6.97;4.72;;;26.30;99.90;;;;;;5012239;28;20414;-74
2023/06/10 08:01:03;;;;;;;7.60;4.75;;;26.50;99.90;;;;;;5007933;28;20912;-75
2023/06/10 08:03:30;;;;;;;8.52;4.60;;;26.50;99.90;;;;;;5041394;28;20417;-76
2023/06/10 08:05:56;;;;;;;9.38;4.85;;;26.50;99.90;;;;;;5037912;28;20412;-76
2023/06/10 08:08:22;;;;;;;12.70;5.30;;;26.70;99.90;;;;;;5026939;28;20811;-73
2023/06/10 08:10:49;;;;;;;9.63;5.13;;;26.80;99.90;;;;;;5024471;28;20431;-74
2023/06/10 08:13:16;;;;;;;5.90;4.10;;;26.90;99.90;;;;;;5041180;28;20535;-74
2023/06/10 08:15:42;;;;;;;6.85;4.30;;;27.10;99.90;;;;;;5006379;28;20427;-75
2023/06/10 08:18:08;;;;;;;7.55;4.40;;;27.20;99.90;;;;;;5002506;28;20423;-75
2023/06/10 08:20:35;;;;;;;7.60;4.77;;;27.40;99.90;;;;;;5007866;28;20524;-75
2023/06/10 08:23:01;;;;;;;7.75;4.30;;;27.40;99.90;;;;;;5009248;28;20423;-74
2023/06/10 08:25:28;;;;;;;6.50;4.35;;;27.40;99.90;;;;;;5006483;28;20568;-73
2023/06/10 08:27:56;;;;;;;9.23;4.40;;;27.50;99.90;;;;;;5007822;28;20474;-74
2023/06/10 08:30:22;;;;;;;6.68;4.22;;;27.70;99.90;;;;;;5022102;28;20421;-75
2023/06/10 08:32:49;;;;;;;5.70;3.90;;;27.80;99.90;;;;;;5038675;28;20421;-75
2023/06/10 08:35:15;;;;;;;7.70;4.50;;;27.90;99.90;;;;;;5024819;28;20409;-75
2023/06/10 08:37:42;;;;;;;6.97;4.10;;;28.00;99.90;;;;;;5037636;28;20421;-75
2023/06/10 08:40:09;;;;;;;7.32;4.10;;;28.20;99.90;;;;;;5009899;28;20407;-72
2023/06/10 08:42:49;;;;;;;10.60;4.32;;;28.20;99.90;;;;;;5004294;28;20403;-72
2023/06/10 08:45:19;;;;;;;6.97;4.10;;;28.30;99.90;;;;;;5014216;28;20421;-74
2023/06/10 08:47:50;;;;;;;7.28;4.22;;;28.40;99.90;;;;;;5010903;28;20479;-75
2023/06/10 08:50:17;;;;;;;8.27;4.47;;;28.40;99.90;;;;;;5008189;28;20425;-72
2023/06/10 08:52:54;;;;;;;7.50;4.55;;;28.40;99.90;;;;;;5005564;28;20410;-73
2023/06/10 08:55:51;;;;;;;8.32;4.75;;;28.60;99.90;;;;;;5010023;28;20859;-73
2023/06/10 08:58:19;;;;;;;7.97;4.35;;;28.80;99.90;;;;;;5006093;28;20421;-73
2023/06/10 09:00:46;;;;;;;7.57;4.20;;;28.90;99.90;;;;;;5036226;28;20418;-73
2023/06/10 09:03:13;;;;;;;8.20;4.63;;;29.00;99.90;;;;;;5029112;28;21129;-73
2023/06/10 09:05:40;;;;;;;7.95;4.80;;;29.10;99.90;;;;;;5044713;28;20936;-73
2023/06/10 09:08:09;;;;;;;9.15;4.35;;;29.20;99.90;;;;;;5027169;28;20502;-72
2023/06/10 09:10:35;;;;;;;10.35;4.80;;;29.30;99.90;;;;;;5019618;28;20782;-74
2023/06/10 09:13:03;;;;;;;9.88;5.15;;;29.30;99.90;;;;;;5019540;28;20458;-75
2023/06/10 09:15:29;;;;;;;9.25;4.70;;;29.30;99.90;;;;;;5011346;28;20581;-74
2023/06/10 09:17:55;;;;;;;8.30;4.10;;;29.50;99.90;;;;;;5009623;28;20418;-73
2023/06/10 09:20:22;;;;;;;7.40;4.40;;;29.60;99.90;;;;;;4994778;28;20420;-74
2023/06/10 09:22:49;;;;;;;9.27;4.67;;;29.70;99.90;;;;;;5011482;28;20435;-73
2023/06/10 09:25:16;;;;;;;8.23;4.40;;;29.80;99.90;;;;;;5011964;28;20955;-74
2023/06/10 09:27:56;;;;;;;8.93;4.70;;;29.70;99.90;;;;;;5010868;28;20421;-74
2023/06/10 09:30:34;;;;;;;8.65;4.63;;;29.60;99.90;;;;;;5007867;28;20745;-75
2023/06/10 09:33:03;;;;;;;10.32;5.38;;;29.70;99.90;;;;;;5038420;28;20987;-73
2023/06/10 09:35:31;;;;;;;11.00;5.05;;;29.70;99.90;;;;;;5021887;28;20594;-74
2023/06/10 09:38:00;;;;;;;12.05;5.25;;;29.70;99.90;;;;;;4986063;28;20430;-74
2023/06/10 09:40:29;;;;;;;12.88;5.75;;;29.80;99.90;;;;;;5038715;28;20918;-74
2023/06/10 09:42:59;;;;;;;13.52;6.47;;;30.00;99.90;;;;;;5010710;28;20489;-74
2023/06/10 09:45:31;;;;;;;11.88;6.25;;;29.80;99.90;;;;;;5006636;28;20760;-75
2023/06/10 09:47:58;;;;;;;11.85;6.25;;;29.80;99.90;;;;;;5005008;28;20420;-75
2023/06/10 09:50:25;;;;;;;10.73;6.32;;;29.70;99.90;;;;;;5037177;28;20936;-73
2023/06/10 09:52:52;;;;;;;11.63;6.18;;;29.70;99.90;;;;;;5006370;28;20510;-73
2023/06/10 09:55:19;;;;;;;13.20;7.05;;;30.00;99.90;;;;;;5042739;28;20469;-73
2023/06/10 09:57:49;;;;;;;12.88;7.00;;;30.10;99.90;;;;;;5022814;28;20450;-73
2023/06/10 10:00:16;;;;;;;11.77;6.97;;;30.10;99.90;;;;;;5009073;28;20409;-73
2023/06/10 10:02:50;;;;;;;14.00;7.53;;;30.20;99.90;;;;;;5023540;28;20508;-73
2023/06/10 10:05:21;;;;;;;12.73;7.05;;;30.20;99.90;;;;;;5034331;28;20428;-73
2023/06/10 10:07:48;;;;;;;13.30;7.93;;;30.20;99.90;;;;;;5003658;28;20411;-73
2023/06/10 10:10:19;;;;;;;12.83;7.30;;;30.10;99.90;;;;;;5013844;28;20915;-73
2023/06/10 10:12:48;;;;;;;12.18;7.22;;;30.00;99.90;;;;;;5023566;28;20415;-73
2023/06/10 10:15:20;;;;;;;12.85;7.82;;;29.80;99.90;;;;;;5030811;28;20409;-74
2023/06/10 10:18:00;;;;;;;12.45;7.40;;;29.90;99.90;;;;;;5024623;28;20417;-74
2023/06/10 10:20:33;;;;;;;13.43;7.65;;;30.00;99.90;;;;;;5012924;28;20761;-75
2023/06/10 10:23:03;;;;;;;12.68;7.05;;;30.00;99.90;;;;;;5040471;28;20416;-74
2023/06/10 10:25:39;;;;;;;13.65;8.13;;;30.00;99.90;;;;;;5017248;28;20561;-74
2023/06/10 10:28:11;;;;;;;14.65;7.45;;;30.00;99.90;;;;;;5047491;28;20488;-74
2023/06/10 10:30:50;;;;;;;11.98;7.30;;;29.90;99.90;;;;;;5012821;28;20427;-74
2023/06/10 10:33:28;;;;;;;15.05;7.95;;;29.70;99.90;;;;;;5020386;28;20968;-74
2023/06/10 10:35:57;;;;;;;14.07;8.10;;;29.70;99.90;;;;;;5016923;28;20419;-74
2023/06/10 10:38:25;;;;;;;13.73;7.97;;;29.60;99.90;;;;;;5013369;28;20416;-74
2023/06/10 10:40:55;;;;;;;15.82;7.78;;;29.50;99.90;;;;;;5042408;28;20952;-74
2023/06/10 10:43:21;;;;;;;14.25;7.68;;;29.50;99.90;;;;;;5028492;28;20426;-74
2023/06/10 10:46:00;;;;;;;13.20;7.30;;;29.40;99.90;;;;;;5044632;28;20516;-74
2023/06/10 10:48:33;;;;;;;12.20;6.82;;;29.50;99.90;;;;;;5028328;28;20532;-74
2023/06/10 10:50:59;;;;;;;15.48;7.55;;;29.30;99.90;;;;;;5030026;28;20428;-74
2023/06/10 10:53:26;;;;;;;15.80;7.43;;;29.20;99.90;;;;;;5014271;28;20420;-74
2023/06/10 10:56:14;;;;;;;12.30;6.53;;;29.10;99.90;;;;;;5005408;28;20530;-74
2023/06/10 10:58:41;;;;;;;12.52;6.53;;;29.10;99.90;;;;;;5047202;28;20449;-74
2023/06/10 11:01:15;;;;;;;11.10;6.10;;;29.10;99.90;;;;;;5013579;28;20928;-74
2023/06/10 11:03:48;;;;;;;11.73;5.60;;;29.00;99.90;;;;;;5045134;28;20417;-74
2023/06/10 11:06:18;;;;;;;12.48;5.78;;;28.90;99.90;;;;;;5016661;28;20469;-74
2023/06/10 11:08:46;;;;;;;11.98;5.50;;;29.00;99.90;;;;;;5019923;28;20476;-74
2023/06/10 11:11:25;;;;;;;12.73;5.93;;;29.00;99.90;;;;;;5035793;28;20424;-74
2023/06/10 11:14:04;;;;;;;13.75;6.18;;;28.90;99.90;;;;;;5011838;28;20418;-74
2023/06/10 11:16:39;;;;;;;14.02;5.78;;;28.90;99.90;;;;;;5016422;28;20425;-74
2023/06/10 11:19:05;;;;;;;13.02;5.90;;;28.90;99.90;;;;;;5012308;28;20424;-74
2023/06/10 11:21:32;;;;;;;12.38;5.75;;;28.90;99.90;;;;;;5010753;28;20415;-74
2023/06/10 11:24:15;;;;;;;12.90;6.65;;;28.90;99.90;;;;;;5017041;28;21151;-74
2023/06/10 11:26:44;;;;;;;14.85;6.15;;;28.80;99.90;;;;;;5019329;28;20426;-74
2023/06/10 11:29:11;;;;;;;11.20;5.35;;;28.80;99.90;;;;;;5032735;28;20409;-74
2023/06/10 11:31:49;;;;;;;11.93;5.10;;;28.80;99.90;;;;;;5012061;28;20439;-74
2023/06/10 11:34:24;;;;;;;9.45;5.20;;;28.80;99.90;;;;;;5000993;28;20664;-74
2023/06/10 11:36:53;;;;;;;10.05;4.82;;;28.90;99.90;;;;;;5049303;28;20862;-75
2023/06/10 11:39:23;;;;;;;13.18;5.10;;;28.80;99.90;;;;;;5012839;28;20903;-75
2023/06/10 11:41:52;;;;;;;11.70;4.40;;;28.70;99.90;;;;;;5006509;28;20841;-74
2023/06/10 11:44:18;;;;;;;11.32;4.32;;;28.80;99.90;;;;;;5014382;28;20956;-74
2023/06/10 11:46:47;;;;;;;11.55;4.80;;;28.80;99.90;;;;;;5042342;28;20422;-74
2023/06/10 11:49:14;;;;;;;14.68;5.78;;;28.80;99.90;;;;;;4993643;28;20952;-74
2023/06/10 11:51:48;;;;;;;11.57;4.95;;;28.80;99.90;;;;;;5007692;28;20435;-74
2023/06/10 11:54:17;;;;;;;12.15;5.18;;;28.80;99.90;;;;;;5015644;28;20517;-74
2023/06/10 11:56:43;;;;;;;8.43;4.63;;;28.80;99.90;;;;;;5008389;28;20439;-74
2023/06/10 11:59:09;;;;;;;9.32;3.95;;;28.70;99.90;;;;;;5018105;28;20425;-74
2023/06/10 12:01:41;;;;;;;12.32;5.10;;;28.70;99.90;;;;;;5014484;28;20421;-74
2023/06/10 12:04:18;;;;;;;8.38;4.07;;;28.70;99.90;;;;;;5011296;28;20450;-74
2023/06/10 12:06:47;;;;;;;9.00;4.30;;;28.70;99.90;;;;;;5040799;28;20749;-74
2023/06/10 12:09:25;;;;;;;9.90;4.20;;;28.70;99.90;;;;;;5001253;28;20422;-74
2023/06/10 12:12:12;;;;;;;9.30;4.72;;;28.60;99.90;;;;;;5021705;28;20463;-74
2023/06/10 12:14:58;;;;;;;9.88;4.20;;;28.70;99.90;;;;;;5009282;28;20441;-73
2023/06/10 12:17:31;;;;;;;7.35;3.95;;;28.70;99.90;;;;;;5021901;28;20409;-74
2023/06/10 12:19:59;;;;;;;7.53;2.72;;;28.60;99.90;;;;;;5015920;28;20424;-74
2023/06/10 12:22:26;;;;;;;9.23;3.55;;;28.70;99.90;;;;;;5010966;28;20426;-74
2023/06/10 12:25:01;;;;;;;7.75;3.53;;;28.70;99.90;;;;;;5010729;28;20418;-74
2023/06/10 12:27:33;;;;;;;8.88;4.10;;;28.60;99.90;;;;;;5004611;28;20800;-74
2023/06/10 12:30:06;;;;;;;8.07;3.97;;;28.80;99.90;;;;;;5040735;28;20440;-74
2023/06/10 12:32:46;;;;;;;5.22;3.33;;;28.70;99.90;;;;;;5014784;28;20939;-74
2023/06/10 12:35:18;;;;;;;26.13;5.22;;;28.70;99.90;;;;;;5025322;28;20935;-74
2023/06/10 12:38:06;;;;;;;6.90;2.90;;;28.80;99.90;;;;;;5008970;28;20422;-74
2023/06/10 12:40:40;;;;;;;7.25;3.50;;;28.80;99.90;;;;;;4996482;28;20411;-74
2023/06/10 12:43:07;;;;;;;7.90;3.42;;;28.50;99.90;;;;;;5031725;28;20419;-74
2023/06/10 12:45:36;;;;;;;6.45;3.00;;;28.40;99.90;;;;;;5012799;28;20978;-74
2023/06/10 12:48:15;;;;;;;8.77;3.23;;;28.40;99.90;;;;;;5009189;28;20537;-74
2023/06/10 12:50:43;;;;;;;7.85;3.20;;;28.50;99.90;;;;;;5011492;28;20962;-74